sensor_id;sensor_type;location;lat;lon;timestamp;P1;durP1;ratioP1;P2;durP2;ratioP2
45618;SDS011;31343;47.520;19.144;2022-11-20T00:01:15;18.13;;;8.82;;
45618;SDS011;31343;47.520;19.144;2022-11-20T00:03:43;17.77;;;9.13;;
45618;SDS011;31343;47.520;19.144;2022-11-20T00:06:13;16.73;;;8.48;;
45618;SDS011;31343;47.520;19.144;2022-11-20T00:08:43;16.57;;;8.40;;
45618;SDS011;31343;47.520;19.144;2022-11-20T00:11:13;19.38;;;8.48;;
45618;SDS011;31343;47.520;19.144;2022-11-20T00:13:44;19.48;;;9.25;;
45618;SDS011;31343;47.520;19.144;2022-11-20T00:16:11;18.27;;;9.43;;
45618;SDS011;31343;47.520;19.144;2022-11-20T00:18:39;20.33;;;9.55;;
45618;SDS011;31343;47.520;19.144;2022-11-20T00:21:09;19.65;;;9.85;;
45618;SDS011;31343;47.520;19.144;2022-11-20T00:23:40;23.20;;;10.60;;
45618;SDS011;31343;47.520;19.144;2022-11-20T00:26:07;19.73;;;10.38;;
45618;SDS011;31343;47.520;19.144;2022-11-20T00:28:35;20.50;;;10.50;;
45618;SDS011;31343;47.520;19.144;2022-11-20T00:31:12;20.20;;;10.25;;
45618;SDS011;31343;47.520;19.144;2022-11-20T00:33:39;19.08;;;10.07;;
45618;SDS011;31343;47.520;19.144;2022-11-20T00:36:07;17.92;;;9.88;;
45618;SDS011;31343;47.520;19.144;2022-11-20T00:38:34;19.67;;;8.55;;
45618;SDS011;31343;47.520;19.144;2022-11-20T00:41:01;20.77;;;8.93;;
45618;SDS011;31343;47.520;19.144;2022-11-20T00:43:32;23.55;;;9.65;;
45618;SDS011;31343;47.520;19.144;2022-11-20T00:45:59;18.42;;;10.40;;
45618;SDS011;31343;47.520;19.144;2022-11-20T00:48:26;19.27;;;9.15;;
45618;SDS011;31343;47.520;19.144;2022-11-20T00:50:52;21.27;;;10.55;;
45618;SDS011;31343;47.520;19.144;2022-11-20T00:53:18;23.75;;;10.43;;
45618;SDS011;31343;47.520;19.144;2022-11-20T00:55:52;19.30;;;9.75;;
45618;SDS011;31343;47.520;19.144;2022-11-20T00:58:23;22.63;;;11.30;;
45618;SDS011;31343;47.520;19.144;2022-11-20T01:00:49;19.40;;;9.75;;
45618;SDS011;31343;47.520;19.144;2022-11-20T01:03:16;21.05;;;11.45;;
45618;SDS011;31343;47.520;19.144;2022-11-20T01:05:42;21.35;;;11.25;;
45618;SDS011;31343;47.520;19.144;2022-11-20T01:08:08;23.35;;;10.90;;
45618;SDS011;31343;47.520;19.144;2022-11-20T01:10:34;25.38;;;11.05;;
45618;SDS011;31343;47.520;19.144;2022-11-20T01:13:00;18.70;;;10.32;;
45618;SDS011;31343;47.520;19.144;2022-11-20T01:15:44;23.02;;;10.80;;
45618;SDS011;31343;47.520;19.144;2022-11-20T01:18:10;22.35;;;10.20;;
45618;SDS011;31343;47.520;19.144;2022-11-20T01:20:36;21.65;;;11.32;;
45618;SDS011;31343;47.520;19.144;2022-11-20T01:23:02;22.58;;;10.68;;
45618;SDS011;31343;47.520;19.144;2022-11-20T01:25:28;26.50;;;12.18;;
45618;SDS011;31343;47.520;19.144;2022-11-20T01:27:54;24.02;;;11.52;;
45618;SDS011;31343;47.520;19.144;2022-11-20T01:30:20;26.33;;;12.73;;
45618;SDS011;31343;47.520;19.144;2022-11-20T01:32:45;25.17;;;11.93;;
45618;SDS011;31343;47.520;19.144;2022-11-20T01:35:11;28.60;;;11.55;;
45618;SDS011;31343;47.520;19.144;2022-11-20T01:37:37;25.95;;;11.57;;
45618;SDS011;31343;47.520;19.144;2022-11-20T01:40:02;29.45;;;10.80;;
45618;SDS011;31343;47.520;19.144;2022-11-20T01:42:29;22.85;;;13.38;;
45618;SDS011;31343;47.520;19.144;2022-11-20T01:48:17;29.25;;;11.23;;
45618;SDS011;31343;47.520;19.144;2022-11-20T01:50:44;27.45;;;12.45;;
45618;SDS011;31343;47.520;19.144;2022-11-20T01:53:11;29.25;;;12.60;;
45618;SDS011;31343;47.520;19.144;2022-11-20T01:55:41;27.70;;;12.10;;
45618;SDS011;31343;47.520;19.144;2022-11-20T01:58:16;29.58;;;11.63;;
45618;SDS011;31343;47.520;19.144;2022-11-20T02:00:44;28.10;;;13.57;;
45618;SDS011;31343;47.520;19.144;2022-11-20T02:03:11;28.95;;;13.98;;
45618;SDS011;31343;47.520;19.144;2022-11-20T02:08:10;28.15;;;12.70;;
45618;SDS011;31343;47.520;19.144;2022-11-20T02:10:37;27.98;;;13.60;;
45618;SDS011;31343;47.520;19.144;2022-11-20T02:13:03;26.95;;;14.65;;
45618;SDS011;31343;47.520;19.144;2022-11-20T02:15:47;30.50;;;13.25;;
45618;SDS011;31343;47.520;19.144;2022-11-20T02:18:14;28.08;;;12.80;;
45618;SDS011;31343;47.520;19.144;2022-11-20T02:20:42;28.33;;;12.75;;
45618;SDS011;31343;47.520;19.144;2022-11-20T02:25:51;26.13;;;13.18;;
45618;SDS011;31343;47.520;19.144;2022-11-20T02:28:19;29.85;;;13.10;;
45618;SDS011;31343;47.520;19.144;2022-11-20T02:30:45;31.10;;;13.63;;
45618;SDS011;31343;47.520;19.144;2022-11-20T02:33:10;27.20;;;13.10;;
45618;SDS011;31343;47.520;19.144;2022-11-20T02:35:41;31.10;;;13.50;;
45618;SDS011;31343;47.520;19.144;2022-11-20T02:38:08;35.55;;;14.07;;
45618;SDS011;31343;47.520;19.144;2022-11-20T02:40:35;29.23;;;13.20;;
45618;SDS011;31343;47.520;19.144;2022-11-20T02:43:00;29.10;;;12.82;;
45618;SDS011;31343;47.520;19.144;2022-11-20T02:45:26;28.02;;;12.52;;
45618;SDS011;31343;47.520;19.144;2022-11-20T02:47:52;28.95;;;12.45;;
45618;SDS011;31343;47.520;19.144;2022-11-20T02:50:18;26.88;;;12.70;;
45618;SDS011;31343;47.520;19.144;2022-11-20T02:52:44;28.10;;;13.07;;
45618;SDS011;31343;47.520;19.144;2022-11-20T02:55:09;27.17;;;12.85;;
45618;SDS011;31343;47.520;19.144;2022-11-20T02:57:35;27.17;;;12.40;;
45618;SDS011;31343;47.520;19.144;2022-11-20T03:00:02;24.10;;;12.25;;
45618;SDS011;31343;47.520;19.144;2022-11-20T03:02:32;29.77;;;14.65;;
45618;SDS011;31343;47.520;19.144;2022-11-20T03:04:58;33.95;;;13.13;;
45618;SDS011;31343;47.520;19.144;2022-11-20T03:07:23;30.00;;;12.57;;
45618;SDS011;31343;47.520;19.144;2022-11-20T03:09:49;27.98;;;12.95;;
45618;SDS011;31343;47.520;19.144;2022-11-20T03:12:15;26.30;;;11.77;;
45618;SDS011;31343;47.520;19.144;2022-11-20T03:14:40;25.45;;;12.18;;
45618;SDS011;31343;47.520;19.144;2022-11-20T03:17:06;26.45;;;11.43;;
45618;SDS011;31343;47.520;19.144;2022-11-20T03:19:32;26.95;;;12.40;;
45618;SDS011;31343;47.520;19.144;2022-11-20T03:21:57;27.42;;;12.63;;
45618;SDS011;31343;47.520;19.144;2022-11-20T03:24:23;22.90;;;11.80;;
45618;SDS011;31343;47.520;19.144;2022-11-20T03:26:49;21.88;;;10.93;;
45618;SDS011;31343;47.520;19.144;2022-11-20T03:29:14;25.35;;;11.07;;
45618;SDS011;31343;47.520;19.144;2022-11-20T03:31:40;26.58;;;12.52;;
45618;SDS011;31343;47.520;19.144;2022-11-20T03:34:06;25.60;;;12.13;;
45618;SDS011;31343;47.520;19.144;2022-11-20T03:36:33;25.38;;;12.60;;
45618;SDS011;31343;47.520;19.144;2022-11-20T03:39:02;27.00;;;12.07;;
45618;SDS011;31343;47.520;19.144;2022-11-20T03:41:28;22.25;;;11.25;;
45618;SDS011;31343;47.520;19.144;2022-11-20T03:44:00;23.10;;;11.05;;
45618;SDS011;31343;47.520;19.144;2022-11-20T03:46:27;25.88;;;11.35;;
45618;SDS011;31343;47.520;19.144;2022-11-20T03:48:54;22.92;;;11.07;;
45618;SDS011;31343;47.520;19.144;2022-11-20T03:51:23;25.88;;;11.88;;
45618;SDS011;31343;47.520;19.144;2022-11-20T03:53:51;23.73;;;11.65;;
45618;SDS011;31343;47.520;19.144;2022-11-20T03:56:19;23.88;;;11.25;;
45618;SDS011;31343;47.520;19.144;2022-11-20T03:58:48;24.75;;;11.32;;
45618;SDS011;31343;47.520;19.144;2022-11-20T04:01:15;24.70;;;11.98;;
45618;SDS011;31343;47.520;19.144;2022-11-20T04:03:43;22.67;;;12.43;;
45618;SDS011;31343;47.520;19.144;2022-11-20T04:06:10;21.25;;;10.10;;
45618;SDS011;31343;47.520;19.144;2022-11-20T04:08:38;23.55;;;12.48;;
45618;SDS011;31343;47.520;19.144;2022-11-20T04:11:13;23.58;;;12.85;;
45618;SDS011;31343;47.520;19.144;2022-11-20T04:13:42;24.35;;;11.43;;
45618;SDS011;31343;47.520;19.144;2022-11-20T04:16:11;23.15;;;12.05;;
45618;SDS011;31343;47.520;19.144;2022-11-20T04:18:37;27.83;;;12.77;;
45618;SDS011;31343;47.520;19.144;2022-11-20T04:21:03;24.58;;;12.85;;
45618;SDS011;31343;47.520;19.144;2022-11-20T04:23:30;26.73;;;12.63;;
45618;SDS011;31343;47.520;19.144;2022-11-20T04:26:06;28.83;;;11.55;;
45618;SDS011;31343;47.520;19.144;2022-11-20T04:28:33;26.92;;;13.10;;
45618;SDS011;31343;47.520;19.144;2022-11-20T04:31:12;22.58;;;11.32;;
45618;SDS011;31343;47.520;19.144;2022-11-20T04:33:41;24.35;;;11.57;;
45618;SDS011;31343;47.520;19.144;2022-11-20T04:36:07;26.35;;;12.75;;
45618;SDS011;31343;47.520;19.144;2022-11-20T04:38:39;25.80;;;12.40;;
45618;SDS011;31343;47.520;19.144;2022-11-20T04:41:06;27.00;;;12.25;;
45618;SDS011;31343;47.520;19.144;2022-11-20T04:43:33;25.48;;;12.20;;
45618;SDS011;31343;47.520;19.144;2022-11-20T04:45:59;23.67;;;11.52;;
45618;SDS011;31343;47.520;19.144;2022-11-20T04:48:26;24.15;;;12.30;;
45618;SDS011;31343;47.520;19.144;2022-11-20T04:50:52;24.23;;;13.95;;
45618;SDS011;31343;47.520;19.144;2022-11-20T04:53:19;25.80;;;11.93;;
45618;SDS011;31343;47.520;19.144;2022-11-20T04:55:45;23.15;;;12.05;;
45618;SDS011;31343;47.520;19.144;2022-11-20T04:58:11;21.02;;;11.75;;
45618;SDS011;31343;47.520;19.144;2022-11-20T05:00:37;26.27;;;12.60;;
45618;SDS011;31343;47.520;19.144;2022-11-20T05:03:03;24.95;;;11.45;;
45618;SDS011;31343;47.520;19.144;2022-11-20T05:05:28;26.27;;;12.50;;
45618;SDS011;31343;47.520;19.144;2022-11-20T05:07:57;26.15;;;12.88;;
45618;SDS011;31343;47.520;19.144;2022-11-20T05:10:24;25.65;;;13.07;;
45618;SDS011;31343;47.520;19.144;2022-11-20T05:12:50;26.58;;;12.63;;
45618;SDS011;31343;47.520;19.144;2022-11-20T05:15:16;26.85;;;12.85;;
45618;SDS011;31343;47.520;19.144;2022-11-20T05:17:46;22.42;;;10.85;;
45618;SDS011;31343;47.520;19.144;2022-11-20T05:20:15;24.60;;;11.35;;
45618;SDS011;31343;47.520;19.144;2022-11-20T05:22:41;27.55;;;12.98;;
45618;SDS011;31343;47.520;19.144;2022-11-20T05:25:08;25.63;;;12.68;;
45618;SDS011;31343;47.520;19.144;2022-11-20T05:27:34;25.35;;;13.35;;
45618;SDS011;31343;47.520;19.144;2022-11-20T05:29:59;23.95;;;13.13;;
45618;SDS011;31343;47.520;19.144;2022-11-20T05:32:25;26.38;;;12.10;;
45618;SDS011;31343;47.520;19.144;2022-11-20T05:34:51;24.65;;;12.55;;
45618;SDS011;31343;47.520;19.144;2022-11-20T05:37:17;23.38;;;11.85;;
45618;SDS011;31343;47.520;19.144;2022-11-20T05:39:43;28.30;;;14.02;;
45618;SDS011;31343;47.520;19.144;2022-11-20T05:42:08;30.67;;;13.00;;
45618;SDS011;31343;47.520;19.144;2022-11-20T05:44:53;23.67;;;12.30;;
45618;SDS011;31343;47.520;19.144;2022-11-20T05:47:19;25.73;;;11.38;;
45618;SDS011;31343;47.520;19.144;2022-11-20T05:49:44;26.77;;;11.52;;
45618;SDS011;31343;47.520;19.144;2022-11-20T05:52:10;29.25;;;13.57;;
45618;SDS011;31343;47.520;19.144;2022-11-20T05:54:36;25.42;;;12.80;;
45618;SDS011;31343;47.520;19.144;2022-11-20T05:57:01;27.63;;;13.52;;
45618;SDS011;31343;47.520;19.144;2022-11-20T05:59:27;35.45;;;14.40;;
45618;SDS011;31343;47.520;19.144;2022-11-20T06:01:52;23.40;;;12.00;;
45618;SDS011;31343;47.520;19.144;2022-11-20T06:04:18;27.75;;;13.60;;
45618;SDS011;31343;47.520;19.144;2022-11-20T06:06:44;28.77;;;12.90;;
45618;SDS011;31343;47.520;19.144;2022-11-20T06:09:10;26.42;;;12.43;;
45618;SDS011;31343;47.520;19.144;2022-11-20T06:11:35;26.85;;;12.95;;
45618;SDS011;31343;47.520;19.144;2022-11-20T06:14:01;26.45;;;12.88;;
45618;SDS011;31343;47.520;19.144;2022-11-20T06:16:26;27.30;;;14.43;;
45618;SDS011;31343;47.520;19.144;2022-11-20T06:18:52;28.35;;;12.25;;
45618;SDS011;31343;47.520;19.144;2022-11-20T06:21:19;25.27;;;12.73;;
45618;SDS011;31343;47.520;19.144;2022-11-20T06:23:46;27.55;;;13.02;;
45618;SDS011;31343;47.520;19.144;2022-11-20T06:26:14;22.27;;;12.20;;
45618;SDS011;31343;47.520;19.144;2022-11-20T06:28:44;24.90;;;12.70;;
45618;SDS011;31343;47.520;19.144;2022-11-20T06:31:10;26.85;;;12.00;;
45618;SDS011;31343;47.520;19.144;2022-11-20T06:33:38;26.73;;;13.07;;
45618;SDS011;31343;47.520;19.144;2022-11-20T06:36:04;26.40;;;11.95;;
45618;SDS011;31343;47.520;19.144;2022-11-20T06:38:30;27.95;;;12.27;;
45618;SDS011;31343;47.520;19.144;2022-11-20T06:40:55;24.95;;;12.40;;
45618;SDS011;31343;47.520;19.144;2022-11-20T06:43:21;26.85;;;12.18;;
45618;SDS011;31343;47.520;19.144;2022-11-20T06:45:54;23.10;;;11.25;;
45618;SDS011;31343;47.520;19.144;2022-11-20T06:48:21;27.55;;;13.20;;
45618;SDS011;31343;47.520;19.144;2022-11-20T06:50:47;26.90;;;11.95;;
45618;SDS011;31343;47.520;19.144;2022-11-20T06:53:13;31.45;;;12.70;;
45618;SDS011;31343;47.520;19.144;2022-11-20T06:55:43;27.08;;;12.93;;
45618;SDS011;31343;47.520;19.144;2022-11-20T06:58:12;28.00;;;12.68;;
45618;SDS011;31343;47.520;19.144;2022-11-20T07:00:39;24.88;;;11.68;;
45618;SDS011;31343;47.520;19.144;2022-11-20T07:03:05;29.02;;;10.80;;
45618;SDS011;31343;47.520;19.144;2022-11-20T07:05:32;24.30;;;12.88;;
45618;SDS011;31343;47.520;19.144;2022-11-20T07:07:57;28.17;;;13.52;;
45618;SDS011;31343;47.520;19.144;2022-11-20T07:10:23;27.05;;;13.48;;
45618;SDS011;31343;47.520;19.144;2022-11-20T07:12:50;28.17;;;13.18;;
45618;SDS011;31343;47.520;19.144;2022-11-20T07:15:16;25.25;;;11.82;;
45618;SDS011;31343;47.520;19.144;2022-11-20T07:17:42;26.35;;;12.85;;
45618;SDS011;31343;47.520;19.144;2022-11-20T07:20:08;24.33;;;14.02;;
45618;SDS011;31343;47.520;19.144;2022-11-20T07:22:34;26.73;;;13.90;;
45618;SDS011;31343;47.520;19.144;2022-11-20T07:25:01;26.67;;;13.38;;
45618;SDS011;31343;47.520;19.144;2022-11-20T07:27:27;24.45;;;12.43;;
45618;SDS011;31343;47.520;19.144;2022-11-20T07:29:53;32.33;;;16.30;;
45618;SDS011;31343;47.520;19.144;2022-11-20T07:32:18;28.85;;;12.38;;
45618;SDS011;31343;47.520;19.144;2022-11-20T07:34:44;27.52;;;13.30;;
45618;SDS011;31343;47.520;19.144;2022-11-20T07:37:10;31.50;;;15.38;;
45618;SDS011;31343;47.520;19.144;2022-11-20T07:39:36;31.50;;;14.35;;
45618;SDS011;31343;47.520;19.144;2022-11-20T07:42:01;28.55;;;13.05;;
45618;SDS011;31343;47.520;19.144;2022-11-20T07:44:27;27.90;;;12.82;;
45618;SDS011;31343;47.520;19.144;2022-11-20T07:46:53;29.60;;;14.90;;
45618;SDS011;31343;47.520;19.144;2022-11-20T07:49:18;24.15;;;11.10;;
45618;SDS011;31343;47.520;19.144;2022-11-20T07:51:44;31.13;;;15.45;;
45618;SDS011;31343;47.520;19.144;2022-11-20T07:54:10;29.38;;;14.00;;
45618;SDS011;31343;47.520;19.144;2022-11-20T07:56:35;26.85;;;14.65;;
45618;SDS011;31343;47.520;19.144;2022-11-20T07:59:01;28.60;;;13.48;;
45618;SDS011;31343;47.520;19.144;2022-11-20T08:01:28;27.85;;;12.60;;
45618;SDS011;31343;47.520;19.144;2022-11-20T08:03:53;27.35;;;12.98;;
45618;SDS011;31343;47.520;19.144;2022-11-20T08:06:19;25.23;;;12.35;;
45618;SDS011;31343;47.520;19.144;2022-11-20T08:08:45;27.40;;;13.30;;
45618;SDS011;31343;47.520;19.144;2022-11-20T08:11:10;24.67;;;13.07;;
45618;SDS011;31343;47.520;19.144;2022-11-20T08:13:54;25.77;;;12.32;;
45618;SDS011;31343;47.520;19.144;2022-11-20T08:16:42;24.20;;;12.70;;
45618;SDS011;31343;47.520;19.144;2022-11-20T08:19:07;25.48;;;12.25;;
45618;SDS011;31343;47.520;19.144;2022-11-20T08:21:33;27.35;;;12.45;;
45618;SDS011;31343;47.520;19.144;2022-11-20T08:23:59;24.83;;;12.50;;
45618;SDS011;31343;47.520;19.144;2022-11-20T08:26:25;25.58;;;11.32;;
45618;SDS011;31343;47.520;19.144;2022-11-20T08:28:57;25.80;;;13.35;;
45618;SDS011;31343;47.520;19.144;2022-11-20T08:31:24;27.45;;;13.32;;
45618;SDS011;31343;47.520;19.144;2022-11-20T08:33:51;28.08;;;13.95;;
45618;SDS011;31343;47.520;19.144;2022-11-20T08:36:17;25.27;;;11.90;;
45618;SDS011;31343;47.520;19.144;2022-11-20T08:39:02;24.02;;;12.32;;
45618;SDS011;31343;47.520;19.144;2022-11-20T08:41:28;22.30;;;11.35;;
45618;SDS011;31343;47.520;19.144;2022-11-20T08:44:02;27.90;;;12.88;;
45618;SDS011;31343;47.520;19.144;2022-11-20T08:46:47;23.95;;;11.98;;
45618;SDS011;31343;47.520;19.144;2022-11-20T08:49:13;23.63;;;11.10;;
45618;SDS011;31343;47.520;19.144;2022-11-20T08:51:40;24.70;;;11.25;;
45618;SDS011;31343;47.520;19.144;2022-11-20T08:54:06;21.60;;;11.05;;
45618;SDS011;31343;47.520;19.144;2022-11-20T08:56:32;23.88;;;13.48;;
45618;SDS011;31343;47.520;19.144;2022-11-20T08:58:58;24.40;;;12.20;;
45618;SDS011;31343;47.520;19.144;2022-11-20T09:01:24;25.08;;;11.70;;
45618;SDS011;31343;47.520;19.144;2022-11-20T09:03:51;23.23;;;12.25;;
45618;SDS011;31343;47.520;19.144;2022-11-20T09:06:16;24.95;;;11.07;;
45618;SDS011;31343;47.520;19.144;2022-11-20T09:08:42;23.70;;;11.65;;
45618;SDS011;31343;47.520;19.144;2022-11-20T09:11:10;23.13;;;12.80;;
45618;SDS011;31343;47.520;19.144;2022-11-20T09:13:36;23.33;;;11.73;;
45618;SDS011;31343;47.520;19.144;2022-11-20T09:16:03;23.17;;;11.23;;
45618;SDS011;31343;47.520;19.144;2022-11-20T09:18:31;22.40;;;12.15;;
45618;SDS011;31343;47.520;19.144;2022-11-20T09:21:00;23.88;;;11.43;;
45618;SDS011;31343;47.520;19.144;2022-11-20T09:23:30;24.83;;;12.18;;
45618;SDS011;31343;47.520;19.144;2022-11-20T09:26:00;24.13;;;11.82;;
45618;SDS011;31343;47.520;19.144;2022-11-20T09:28:27;23.67;;;12.10;;
45618;SDS011;31343;47.520;19.144;2022-11-20T09:30:53;23.10;;;12.88;;
45618;SDS011;31343;47.520;19.144;2022-11-20T09:33:18;23.88;;;12.20;;
45618;SDS011;31343;47.520;19.144;2022-11-20T09:35:44;31.52;;;15.43;;
45618;SDS011;31343;47.520;19.144;2022-11-20T09:38:10;31.83;;;15.00;;
45618;SDS011;31343;47.520;19.144;2022-11-20T09:40:37;28.35;;;14.18;;
45618;SDS011;31343;47.520;19.144;2022-11-20T09:54:20;22.67;;;12.63;;
45618;SDS011;31343;47.520;19.144;2022-11-20T09:56:55;28.17;;;13.45;;
45618;SDS011;31343;47.520;19.144;2022-11-20T09:59:40;25.55;;;13.27;;
45618;SDS011;31343;47.520;19.144;2022-11-20T10:04:38;27.02;;;13.10;;
45618;SDS011;31343;47.520;19.144;2022-11-20T10:07:11;26.40;;;13.10;;
45618;SDS011;31343;47.520;19.144;2022-11-20T10:09:43;25.27;;;13.27;;
45618;SDS011;31343;47.520;19.144;2022-11-20T10:18:04;24.88;;;13.50;;
45618;SDS011;31343;47.520;19.144;2022-11-20T10:20:43;21.05;;;12.23;;
45618;SDS011;31343;47.520;19.144;2022-11-20T10:26:26;25.42;;;13.60;;
45618;SDS011;31343;47.520;19.144;2022-11-20T10:29:13;22.90;;;11.82;;
45618;SDS011;31343;47.520;19.144;2022-11-20T10:31:52;24.42;;;11.43;;
45618;SDS011;31343;47.520;19.144;2022-11-20T10:34:26;24.02;;;13.05;;
45618;SDS011;31343;47.520;19.144;2022-11-20T10:36:56;26.17;;;13.43;;
45618;SDS011;31343;47.520;19.144;2022-11-20T10:39:39;32.90;;;16.70;;
45618;SDS011;31343;47.520;19.144;2022-11-20T10:42:16;29.48;;;13.82;;
45618;SDS011;31343;47.520;19.144;2022-11-20T10:44:51;23.40;;;12.38;;
45618;SDS011;31343;47.520;19.144;2022-11-20T10:47:27;22.83;;;11.77;;
45618;SDS011;31343;47.520;19.144;2022-11-20T10:49:56;26.63;;;13.70;;
45618;SDS011;31343;47.520;19.144;2022-11-20T10:58:16;19.98;;;10.75;;
45618;SDS011;31343;47.520;19.144;2022-11-20T11:01:11;23.60;;;11.70;;
45618;SDS011;31343;47.520;19.144;2022-11-20T11:03:38;24.63;;;11.98;;
45618;SDS011;31343;47.520;19.144;2022-11-20T11:08:37;20.77;;;10.63;;
45618;SDS011;31343;47.520;19.144;2022-11-20T11:11:21;22.80;;;11.45;;
45618;SDS011;31343;47.520;19.144;2022-11-20T11:13:49;26.37;;;12.00;;
45618;SDS011;31343;47.520;19.144;2022-11-20T11:16:22;19.95;;;10.93;;
45618;SDS011;31343;47.520;19.144;2022-11-20T11:18:50;22.48;;;11.20;;
45618;SDS011;31343;47.520;19.144;2022-11-20T11:21:23;25.50;;;12.52;;
45618;SDS011;31343;47.520;19.144;2022-11-20T11:24:00;23.33;;;12.43;;
45618;SDS011;31343;47.520;19.144;2022-11-20T11:26:27;22.13;;;13.00;;
45618;SDS011;31343;47.520;19.144;2022-11-20T11:28:57;23.85;;;12.25;;
45618;SDS011;31343;47.520;19.144;2022-11-20T11:31:25;21.85;;;11.25;;
45618;SDS011;31343;47.520;19.144;2022-11-20T11:34:03;19.55;;;10.73;;
45618;SDS011;31343;47.520;19.144;2022-11-20T11:36:30;21.80;;;12.55;;
45618;SDS011;31343;47.520;19.144;2022-11-20T11:38:57;18.83;;;10.43;;
45618;SDS011;31343;47.520;19.144;2022-11-20T11:41:23;20.08;;;12.30;;
45618;SDS011;31343;47.520;19.144;2022-11-20T11:43:57;20.83;;;11.05;;
45618;SDS011;31343;47.520;19.144;2022-11-20T11:46:54;23.88;;;12.60;;
45618;SDS011;31343;47.520;19.144;2022-11-20T11:49:21;22.70;;;12.18;;
45618;SDS011;31343;47.520;19.144;2022-11-20T11:54:56;22.75;;;12.85;;
45618;SDS011;31343;47.520;19.144;2022-11-20T12:02:40;28.45;;;13.48;;
45618;SDS011;31343;47.520;19.144;2022-11-20T12:16:03;28.27;;;14.07;;
45618;SDS011;31343;47.520;19.144;2022-11-20T12:18:29;26.42;;;15.57;;
45618;SDS011;31343;47.520;19.144;2022-11-20T12:26:22;25.42;;;14.90;;
45618;SDS011;31343;47.520;19.144;2022-11-20T12:29:12;22.08;;;12.07;;
45618;SDS011;31343;47.520;19.144;2022-11-20T12:32:06;25.05;;;12.82;;
45618;SDS011;31343;47.520;19.144;2022-11-20T12:34:44;27.70;;;12.10;;
45618;SDS011;31343;47.520;19.144;2022-11-20T12:37:27;25.98;;;14.15;;
45618;SDS011;31343;47.520;19.144;2022-11-20T12:39:56;27.73;;;13.32;;
45618;SDS011;31343;47.520;19.144;2022-11-20T12:42:40;24.92;;;13.20;;
45618;SDS011;31343;47.520;19.144;2022-11-20T12:45:38;25.40;;;13.40;;
45618;SDS011;31343;47.520;19.144;2022-11-20T12:50:55;28.00;;;13.57;;
45618;SDS011;31343;47.520;19.144;2022-11-20T13:01:58;25.35;;;13.75;;
45618;SDS011;31343;47.520;19.144;2022-11-20T13:04:48;24.27;;;12.95;;
45618;SDS011;31343;47.520;19.144;2022-11-20T13:07:25;27.25;;;13.40;;
45618;SDS011;31343;47.520;19.144;2022-11-20T13:09:53;27.23;;;13.27;;
45618;SDS011;31343;47.520;19.144;2022-11-20T13:18:00;29.60;;;14.88;;
45618;SDS011;31343;47.520;19.144;2022-11-20T13:20:28;35.10;;;17.13;;
45618;SDS011;31343;47.520;19.144;2022-11-20T13:22:55;25.92;;;14.23;;
45618;SDS011;31343;47.520;19.144;2022-11-20T13:25:29;28.38;;;15.02;;
45618;SDS011;31343;47.520;19.144;2022-11-20T13:27:57;27.77;;;13.15;;
45618;SDS011;31343;47.520;19.144;2022-11-20T13:30:26;31.27;;;15.00;;
45618;SDS011;31343;47.520;19.144;2022-11-20T13:33:02;28.55;;;14.05;;
45618;SDS011;31343;47.520;19.144;2022-11-20T13:35:55;23.80;;;12.10;;
45618;SDS011;31343;47.520;19.144;2022-11-20T13:38:23;25.92;;;12.98;;
45618;SDS011;31343;47.520;19.144;2022-11-20T13:40:53;25.08;;;14.75;;
45618;SDS011;31343;47.520;19.144;2022-11-20T13:43:35;24.48;;;13.18;;
45618;SDS011;31343;47.520;19.144;2022-11-20T13:46:04;23.38;;;12.00;;
45618;SDS011;31343;47.520;19.144;2022-11-20T13:48:33;25.08;;;13.63;;
45618;SDS011;31343;47.520;19.144;2022-11-20T13:53:57;26.45;;;12.85;;
45618;SDS011;31343;47.520;19.144;2022-11-20T13:56:34;25.00;;;12.70;;
45618;SDS011;31343;47.520;19.144;2022-11-20T14:01:46;25.60;;;12.73;;
45618;SDS011;31343;47.520;19.144;2022-11-20T14:04:15;26.83;;;12.90;;
45618;SDS011;31343;47.520;19.144;2022-11-20T14:06:50;26.63;;;13.77;;
45618;SDS011;31343;47.520;19.144;2022-11-20T14:09:29;28.63;;;13.68;;
45618;SDS011;31343;47.520;19.144;2022-11-20T14:11:56;27.90;;;13.48;;
45618;SDS011;31343;47.520;19.144;2022-11-20T14:14:23;27.02;;;13.45;;
45618;SDS011;31343;47.520;19.144;2022-11-20T14:16:51;26.00;;;15.15;;
45618;SDS011;31343;47.520;19.144;2022-11-20T14:21:46;29.88;;;13.18;;
45618;SDS011;31343;47.520;19.144;2022-11-20T14:24:18;29.35;;;14.43;;
45618;SDS011;31343;47.520;19.144;2022-11-20T14:26:46;29.02;;;15.73;;
45618;SDS011;31343;47.520;19.144;2022-11-20T14:29:23;21.80;;;12.77;;
45618;SDS011;31343;47.520;19.144;2022-11-20T14:31:54;28.92;;;14.77;;
45618;SDS011;31343;47.520;19.144;2022-11-20T14:34:22;29.33;;;13.63;;
45618;SDS011;31343;47.520;19.144;2022-11-20T14:36:57;25.98;;;12.43;;
45618;SDS011;31343;47.520;19.144;2022-11-20T14:39:30;29.85;;;13.68;;
45618;SDS011;31343;47.520;19.144;2022-11-20T14:42:00;28.80;;;14.13;;
45618;SDS011;31343;47.520;19.144;2022-11-20T14:44:29;26.13;;;13.60;;
45618;SDS011;31343;47.520;19.144;2022-11-20T14:46:58;28.50;;;14.13;;
45618;SDS011;31343;47.520;19.144;2022-11-20T14:49:25;26.02;;;13.98;;
45618;SDS011;31343;47.520;19.144;2022-11-20T14:52:00;32.30;;;15.57;;
45618;SDS011;31343;47.520;19.144;2022-11-20T14:54:29;29.05;;;15.02;;
45618;SDS011;31343;47.520;19.144;2022-11-20T14:57:02;29.90;;;15.98;;
45618;SDS011;31343;47.520;19.144;2022-11-20T14:59:32;28.00;;;13.75;;
45618;SDS011;31343;47.520;19.144;2022-11-20T15:02:00;26.33;;;14.05;;
45618;SDS011;31343;47.520;19.144;2022-11-20T15:04:30;25.90;;;12.68;;
45618;SDS011;31343;47.520;19.144;2022-11-20T15:06:56;29.38;;;13.70;;
45618;SDS011;31343;47.520;19.144;2022-11-20T15:09:23;26.80;;;13.20;;
45618;SDS011;31343;47.520;19.144;2022-11-20T15:11:59;27.02;;;13.40;;
45618;SDS011;31343;47.520;19.144;2022-11-20T15:14:27;26.45;;;13.32;;
45618;SDS011;31343;47.520;19.144;2022-11-20T15:16:55;26.02;;;14.35;;
45618;SDS011;31343;47.520;19.144;2022-11-20T15:19:22;31.77;;;16.15;;
45618;SDS011;31343;47.520;19.144;2022-11-20T15:21:49;28.58;;;14.38;;
45618;SDS011;31343;47.520;19.144;2022-11-20T15:24:15;28.58;;;14.40;;
45618;SDS011;31343;47.520;19.144;2022-11-20T15:26:42;29.58;;;14.75;;
45618;SDS011;31343;47.520;19.144;2022-11-20T15:29:09;30.45;;;13.43;;
45618;SDS011;31343;47.520;19.144;2022-11-20T15:31:39;27.05;;;14.10;;
45618;SDS011;31343;47.520;19.144;2022-11-20T15:34:11;27.35;;;13.73;;
45618;SDS011;31343;47.520;19.144;2022-11-20T15:36:38;25.50;;;13.45;;
45618;SDS011;31343;47.520;19.144;2022-11-20T15:39:04;26.98;;;14.63;;
45618;SDS011;31343;47.520;19.144;2022-11-20T15:41:32;30.88;;;13.55;;
45618;SDS011;31343;47.520;19.144;2022-11-20T15:44:01;26.10;;;13.65;;
45618;SDS011;31343;47.520;19.144;2022-11-20T15:46:29;26.30;;;12.98;;
45618;SDS011;31343;47.520;19.144;2022-11-20T15:51:33;28.52;;;13.52;;